sensor_id;sensor_type;location;lat;lon;timestamp;temperature;humidity
29403;DHT22;16382;59.942;30.472;2022-07-29T00:01:53;17.10;99.90
29403;DHT22;16382;59.942;30.472;2022-07-29T00:04:21;17.10;99.90
29403;DHT22;16382;59.942;30.472;2022-07-29T00:06:48;17.10;99.90
29403;DHT22;16382;59.942;30.472;2022-07-29T00:09:15;17.10;99.90
29403;DHT22;16382;59.942;30.472;2022-07-29T00:11:42;17.10;99.90
29403;DHT22;16382;59.942;30.472;2022-07-29T00:14:09;17.10;99.90
29403;DHT22;16382;59.942;30.472;2022-07-29T00:16:36;17.10;99.90
29403;DHT22;16382;59.942;30.472;2022-07-29T00:19:04;17.10;99.90
29403;DHT22;16382;59.942;30.472;2022-07-29T00:21:32;17.10;99.90
29403;DHT22;16382;59.942;30.472;2022-07-29T00:23:59;17.10;99.90
29403;DHT22;16382;59.942;30.472;2022-07-29T00:26:27;17.10;99.90
29403;DHT22;16382;59.942;30.472;2022-07-29T00:28:58;17.10;99.90
29403;DHT22;16382;59.942;30.472;2022-07-29T00:31:25;17.10;99.90
29403;DHT22;16382;59.942;30.472;2022-07-29T00:33:52;17.10;99.90
29403;DHT22;16382;59.942;30.472;2022-07-29T00:36:20;17.10;99.90
29403;DHT22;16382;59.942;30.472;2022-07-29T00:38:48;17.10;99.90
29403;DHT22;16382;59.942;30.472;2022-07-29T00:41:15;17.10;99.90
29403;DHT22;16382;59.942;30.472;2022-07-29T00:43:42;17.10;99.90
29403;DHT22;16382;59.942;30.472;2022-07-29T00:46:10;17.10;99.90
29403;DHT22;16382;59.942;30.472;2022-07-29T00:48:37;17.00;99.90
29403;DHT22;16382;59.942;30.472;2022-07-29T00:51:05;17.10;99.90
29403;DHT22;16382;59.942;30.472;2022-07-29T00:53:34;17.10;99.90
29403;DHT22;16382;59.942;30.472;2022-07-29T00:56:04;17.00;99.90
29403;DHT22;16382;59.942;30.472;2022-07-29T00:58:31;17.00;99.90
29403;DHT22;16382;59.942;30.472;2022-07-29T01:00:58;17.00;99.90
29403;DHT22;16382;59.942;30.472;2022-07-29T01:03:25;17.00;99.90
29403;DHT22;16382;59.942;30.472;2022-07-29T01:05:53;17.00;99.90
29403;DHT22;16382;59.942;30.472;2022-07-29T01:08:21;17.00;99.90
29403;DHT22;16382;59.942;30.472;2022-07-29T01:10:51;17.00;99.90
29403;DHT22;16382;59.942;30.472;2022-07-29T01:13:20;16.90;99.90
29403;DHT22;16382;59.942;30.472;2022-07-29T01:15:58;16.90;99.90
29403;DHT22;16382;59.942;30.472;2022-07-29T01:18:30;16.80;99.90
29403;DHT22;16382;59.942;30.472;2022-07-29T01:21:21;16.90;99.90
29403;DHT22;16382;59.942;30.472;2022-07-29T01:26:52;16.90;99.90
29403;DHT22;16382;59.942;30.472;2022-07-29T01:29:27;16.90;99.90
29403;DHT22;16382;59.942;30.472;2022-07-29T01:31:58;16.90;99.90
29403;DHT22;16382;59.942;30.472;2022-07-29T01:34:34;16.90;99.90
29403;DHT22;16382;59.942;30.472;2022-07-29T01:37:09;16.90;99.90
29403;DHT22;16382;59.942;30.472;2022-07-29T01:39:43;17.00;99.90
29403;DHT22;16382;59.942;30.472;2022-07-29T01:42:22;17.00;99.90
29403;DHT22;16382;59.942;30.472;2022-07-29T01:44:57;17.00;99.90
29403;DHT22;16382;59.942;30.472;2022-07-29T01:47:28;17.00;99.90
29403;DHT22;16382;59.942;30.472;2022-07-29T01:49:59;17.10;99.90
29403;DHT22;16382;59.942;30.472;2022-07-29T01:52:35;17.10;99.90
29403;DHT22;16382;59.942;30.472;2022-07-29T01:55:09;17.10;99.90
29403;DHT22;16382;59.942;30.472;2022-07-29T01:57:41;17.10;99.90
29403;DHT22;16382;59.942;30.472;2022-07-29T02:00:12;17.20;99.90
29403;DHT22;16382;59.942;30.472;2022-07-29T02:02:45;17.20;99.90
29403;DHT22;16382;59.942;30.472;2022-07-29T02:05:17;17.20;99.90
29403;DHT22;16382;59.942;30.472;2022-07-29T02:07:47;17.30;99.90
29403;DHT22;16382;59.942;30.472;2022-07-29T02:10:15;17.30;99.90
29403;DHT22;16382;59.942;30.472;2022-07-29T02:12:44;17.30;99.90
29403;DHT22;16382;59.942;30.472;2022-07-29T02:15:34;17.30;99.90
29403;DHT22;16382;59.942;30.472;2022-07-29T02:18:05;17.40;99.90
29403;DHT22;16382;59.942;30.472;2022-07-29T02:20:33;17.40;99.90
29403;DHT22;16382;59.942;30.472;2022-07-29T02:23:02;17.40;99.90
29403;DHT22;16382;59.942;30.472;2022-07-29T02:25:31;17.40;99.90
29403;DHT22;16382;59.942;30.472;2022-07-29T02:27:59;17.40;99.90
29403;DHT22;16382;59.942;30.472;2022-07-29T02:30:28;17.40;99.90
29403;DHT22;16382;59.942;30.472;2022-07-29T02:32:58;17.40;99.90
29403;DHT22;16382;59.942;30.472;2022-07-29T02:35:25;17.40;99.90
29403;DHT22;16382;59.942;30.472;2022-07-29T02:37:54;17.40;99.90
29403;DHT22;16382;59.942;30.472;2022-07-29T02:40:39;17.40;99.90
29403;DHT22;16382;59.942;30.472;2022-07-29T02:43:09;17.40;99.90
29403;DHT22;16382;59.942;30.472;2022-07-29T02:45:36;17.50;99.90
29403;DHT22;16382;59.942;30.472;2022-07-29T02:48:10;17.50;99.90
29403;DHT22;16382;59.942;30.472;2022-07-29T02:50:45;17.50;99.90
29403;DHT22;16382;59.942;30.472;2022-07-29T02:53:17;17.50;99.90
29403;DHT22;16382;59.942;30.472;2022-07-29T02:55:48;17.50;99.90
29403;DHT22;16382;59.942;30.472;2022-07-29T02:58:21;17.50;99.90
29403;DHT22;16382;59.942;30.472;2022-07-29T03:00:55;17.50;99.90
29403;DHT22;16382;59.942;30.472;2022-07-29T03:03:31;17.50;99.90
29403;DHT22;16382;59.942;30.472;2022-07-29T03:06:01;17.60;99.90
29403;DHT22;16382;59.942;30.472;2022-07-29T03:08:30;17.60;99.90
29403;DHT22;16382;59.942;30.472;2022-07-29T03:10:59;17.60;99.90
29403;DHT22;16382;59.942;30.472;2022-07-29T03:13:28;17.60;99.90
29403;DHT22;16382;59.942;30.472;2022-07-29T03:15:57;17.70;99.90
29403;DHT22;16382;59.942;30.472;2022-07-29T03:18:26;17.70;99.90
29403;DHT22;16382;59.942;30.472;2022-07-29T03:20:53;17.70;99.90
29403;DHT22;16382;59.942;30.472;2022-07-29T03:23:21;17.80;99.90
29403;DHT22;16382;59.942;30.472;2022-07-29T03:25:49;17.80;99.90
29403;DHT22;16382;59.942;30.472;2022-07-29T03:28:17;17.80;99.90
29403;DHT22;16382;59.942;30.472;2022-07-29T03:30:44;17.80;99.90
29403;DHT22;16382;59.942;30.472;2022-07-29T03:33:11;17.80;99.90
29403;DHT22;16382;59.942;30.472;2022-07-29T03:35:40;17.90;99.90
29403;DHT22;16382;59.942;30.472;2022-07-29T03:38:07;17.90;99.90
29403;DHT22;16382;59.942;30.472;2022-07-29T03:40:40;18.00;99.90
29403;DHT22;16382;59.942;30.472;2022-07-29T03:43:10;18.00;99.90
29403;DHT22;16382;59.942;30.472;2022-07-29T03:45:39;18.10;99.90
29403;DHT22;16382;59.942;30.472;2022-07-29T03:48:12;18.10;99.90
29403;DHT22;16382;59.942;30.472;2022-07-29T03:50:42;18.20;99.90
29403;DHT22;16382;59.942;30.472;2022-07-29T03:53:10;18.30;99.90
29403;DHT22;16382;59.942;30.472;2022-07-29T03:55:41;18.40;99.90
29403;DHT22;16382;59.942;30.472;2022-07-29T03:58:10;18.40;99.90
29403;DHT22;16382;59.942;30.472;2022-07-29T04:00:40;18.50;99.90
29403;DHT22;16382;59.942;30.472;2022-07-29T04:03:08;18.50;99.90
29403;DHT22;16382;59.942;30.472;2022-07-29T04:05:36;18.60;99.90
29403;DHT22;16382;59.942;30.472;2022-07-29T04:08:05;18.60;99.90
29403;DHT22;16382;59.942;30.472;2022-07-29T04:10:32;18.60;99.90
29403;DHT22;16382;59.942;30.472;2022-07-29T04:12:59;18.70;99.90
29403;DHT22;16382;59.942;30.472;2022-07-29T04:15:27;18.70;99.90
29403;DHT22;16382;59.942;30.472;2022-07-29T04:17:54;18.70;99.90
29403;DHT22;16382;59.942;30.472;2022-07-29T04:20:21;18.80;99.90
29403;DHT22;16382;59.942;30.472;2022-07-29T04:22:48;18.90;99.90
29403;DHT22;16382;59.942;30.472;2022-07-29T04:25:17;19.00;99.90
29403;DHT22;16382;59.942;30.472;2022-07-29T04:27:44;19.10;99.90
29403;DHT22;16382;59.942;30.472;2022-07-29T04:30:25;19.10;99.90
29403;DHT22;16382;59.942;30.472;2022-07-29T04:32:52;19.20;99.90
29403;DHT22;16382;59.942;30.472;2022-07-29T04:35:20;19.30;99.90
29403;DHT22;16382;59.942;30.472;2022-07-29T04:37:47;19.30;99.90
29403;DHT22;16382;59.942;30.472;2022-07-29T04:40:14;19.40;99.90
29403;DHT22;16382;59.942;30.472;2022-07-29T04:42:43;19.40;99.90
29403;DHT22;16382;59.942;30.472;2022-07-29T04:45:10;19.50;99.90
29403;DHT22;16382;59.942;30.472;2022-07-29T04:47:37;19.60;99.90
29403;DHT22;16382;59.942;30.472;2022-07-29T04:50:05;19.70;99.90
29403;DHT22;16382;59.942;30.472;2022-07-29T04:52:33;19.80;99.90
29403;DHT22;16382;59.942;30.472;2022-07-29T04:55:01;19.80;99.90
29403;DHT22;16382;59.942;30.472;2022-07-29T04:57:29;19.80;99.90
29403;DHT22;16382;59.942;30.472;2022-07-29T04:59:58;19.90;99.90
29403;DHT22;16382;59.942;30.472;2022-07-29T05:02:25;19.90;99.90
29403;DHT22;16382;59.942;30.472;2022-07-29T05:04:52;19.90;99.90
29403;DHT22;16382;59.942;30.472;2022-07-29T05:07:19;20.00;99.90
29403;DHT22;16382;59.942;30.472;2022-07-29T05:09:47;20.00;99.90
29403;DHT22;16382;59.942;30.472;2022-07-29T05:12:14;20.00;99.90
29403;DHT22;16382;59.942;30.472;2022-07-29T05:14:41;20.10;99.90
29403;DHT22;16382;59.942;30.472;2022-07-29T05:17:09;20.10;99.90
29403;DHT22;16382;59.942;30.472;2022-07-29T05:19:37;20.20;99.90
29403;DHT22;16382;59.942;30.472;2022-07-29T05:22:04;20.30;99.90
29403;DHT22;16382;59.942;30.472;2022-07-29T05:24:31;20.30;99.90
29403;DHT22;16382;59.942;30.472;2022-07-29T05:26:58;20.30;99.90
29403;DHT22;16382;59.942;30.472;2022-07-29T05:29:25;20.40;99.90
29403;DHT22;16382;59.942;30.472;2022-07-29T05:31:52;20.50;99.90
29403;DHT22;16382;59.942;30.472;2022-07-29T05:34:21;20.60;99.90
29403;DHT22;16382;59.942;30.472;2022-07-29T05:36:48;20.70;99.90
29403;DHT22;16382;59.942;30.472;2022-07-29T05:39:15;20.80;99.90
29403;DHT22;16382;59.942;30.472;2022-07-29T05:41:42;20.90;99.90
29403;DHT22;16382;59.942;30.472;2022-07-29T05:44:10;21.00;99.90
29403;DHT22;16382;59.942;30.472;2022-07-29T05:46:39;21.10;99.90
29403;DHT22;16382;59.942;30.472;2022-07-29T05:49:06;21.10;99.90
29403;DHT22;16382;59.942;30.472;2022-07-29T05:51:35;21.20;99.90
29403;DHT22;16382;59.942;30.472;2022-07-29T05:54:02;21.30;99.90
29403;DHT22;16382;59.942;30.472;2022-07-29T05:56:29;21.50;99.90
29403;DHT22;16382;59.942;30.472;2022-07-29T05:58:56;21.60;99.90
29403;DHT22;16382;59.942;30.472;2022-07-29T06:01:24;21.90;99.90
29403;DHT22;16382;59.942;30.472;2022-07-29T06:03:51;22.10;99.90
29403;DHT22;16382;59.942;30.472;2022-07-29T06:06:21;22.20;99.90
29403;DHT22;16382;59.942;30.472;2022-07-29T06:08:51;22.40;99.90
29403;DHT22;16382;59.942;30.472;2022-07-29T06:11:18;22.40;99.90
29403;DHT22;16382;59.942;30.472;2022-07-29T06:13:45;22.50;99.90
29403;DHT22;16382;59.942;30.472;2022-07-29T06:16:13;22.50;99.90
29403;DHT22;16382;59.942;30.472;2022-07-29T06:18:40;22.50;99.90
29403;DHT22;16382;59.942;30.472;2022-07-29T06:21:08;22.50;99.90
29403;DHT22;16382;59.942;30.472;2022-07-29T06:23:36;22.30;99.90
29403;DHT22;16382;59.942;30.472;2022-07-29T06:26:05;22.40;99.90
29403;DHT22;16382;59.942;30.472;2022-07-29T06:28:33;22.40;99.90
29403;DHT22;16382;59.942;30.472;2022-07-29T06:31:00;22.40;99.90
29403;DHT22;16382;59.942;30.472;2022-07-29T06:33:27;22.50;99.90
29403;DHT22;16382;59.942;30.472;2022-07-29T06:35:55;22.50;99.90
29403;DHT22;16382;59.942;30.472;2022-07-29T06:38:22;22.60;99.90
29403;DHT22;16382;59.942;30.472;2022-07-29T06:40:49;22.60;99.90
29403;DHT22;16382;59.942;30.472;2022-07-29T06:43:33;22.80;99.90
29403;DHT22;16382;59.942;30.472;2022-07-29T06:46:03;22.90;99.90
29403;DHT22;16382;59.942;30.472;2022-07-29T06:48:31;23.00;99.90
29403;DHT22;16382;59.942;30.472;2022-07-29T06:50:58;23.10;99.90
29403;DHT22;16382;59.942;30.472;2022-07-29T06:53:26;23.20;99.90
29403;DHT22;16382;59.942;30.472;2022-07-29T06:55:54;23.30;99.90
29403;DHT22;16382;59.942;30.472;2022-07-29T06:58:21;23.40;99.90
29403;DHT22;16382;59.942;30.472;2022-07-29T07:00:56;23.50;99.90
29403;DHT22;16382;59.942;30.472;2022-07-29T07:03:24;23.60;99.90
29403;DHT22;16382;59.942;30.472;2022-07-29T07:05:52;23.60;99.90
29403;DHT22;16382;59.942;30.472;2022-07-29T07:08:20;23.60;99.90
29403;DHT22;16382;59.942;30.472;2022-07-29T07:10:48;23.60;99.90
29403;DHT22;16382;59.942;30.472;2022-07-29T07:13:16;23.70;99.90
29403;DHT22;16382;59.942;30.472;2022-07-29T07:15:44;23.80;99.90
29403;DHT22;16382;59.942;30.472;2022-07-29T07:18:15;24.00;99.90
29403;DHT22;16382;59.942;30.472;2022-07-29T07:20:42;24.20;99.90
29403;DHT22;16382;59.942;30.472;2022-07-29T07:23:10;24.50;99.90
29403;DHT22;16382;59.942;30.472;2022-07-29T07:25:37;24.70;99.90
29403;DHT22;16382;59.942;30.472;2022-07-29T07:28:05;25.00;99.90
29403;DHT22;16382;59.942;30.472;2022-07-29T07:30:32;25.40;99.90
29403;DHT22;16382;59.942;30.472;2022-07-29T07:33:00;25.60;99.90
29403;DHT22;16382;59.942;30.472;2022-07-29T07:35:28;25.80;99.40
29403;DHT22;16382;59.942;30.472;2022-07-29T07:37:56;25.60;99.00
29403;DHT22;16382;59.942;30.472;2022-07-29T07:40:23;25.30;98.50
29403;DHT22;16382;59.942;30.472;2022-07-29T07:42:51;24.80;96.60
29403;DHT22;16382;59.942;30.472;2022-07-29T07:45:18;24.40;96.50
29403;DHT22;16382;59.942;30.472;2022-07-29T07:47:45;23.90;97.80
29403;DHT22;16382;59.942;30.472;2022-07-29T07:50:13;23.50;98.80
29403;DHT22;16382;59.942;30.472;2022-07-29T07:52:49;23.20;99.90
29403;DHT22;16382;59.942;30.472;2022-07-29T07:55:16;23.10;99.90
29403;DHT22;16382;59.942;30.472;2022-07-29T07:57:44;23.00;99.90
29403;DHT22;16382;59.942;30.472;2022-07-29T08:00:12;23.00;99.40
29403;DHT22;16382;59.942;30.472;2022-07-29T08:02:39;23.20;98.10
29403;DHT22;16382;59.942;30.472;2022-07-29T08:05:09;23.50;96.40
29403;DHT22;16382;59.942;30.472;2022-07-29T08:07:37;24.00;95.70
29403;DHT22;16382;59.942;30.472;2022-07-29T08:10:07;24.40;94.50
29403;DHT22;16382;59.942;30.472;2022-07-29T08:12:34;24.70;93.20
29403;DHT22;16382;59.942;30.472;2022-07-29T08:15:02;25.00;92.40
29403;DHT22;16382;59.942;30.472;2022-07-29T08:17:30;25.30;91.40
29403;DHT22;16382;59.942;30.472;2022-07-29T08:19:57;25.70;91.00
29403;DHT22;16382;59.942;30.472;2022-07-29T08:22:24;26.20;89.40
29403;DHT22;16382;59.942;30.472;2022-07-29T08:24:51;26.70;85.80
29403;DHT22;16382;59.942;30.472;2022-07-29T08:27:23;26.90;81.00
29403;DHT22;16382;59.942;30.472;2022-07-29T08:29:52;27.00;78.90
29403;DHT22;16382;59.942;30.472;2022-07-29T08:32:21;27.60;76.50
29403;DHT22;16382;59.942;30.472;2022-07-29T08:34:48;28.60;74.50
29403;DHT22;16382;59.942;30.472;2022-07-29T08:37:15;29.10;73.60
29403;DHT22;16382;59.942;30.472;2022-07-29T08:39:43;29.40;70.90
29403;DHT22;16382;59.942;30.472;2022-07-29T08:42:10;29.60;69.60
29403;DHT22;16382;59.942;30.472;2022-07-29T08:44:39;29.80;69.10
29403;DHT22;16382;59.942;30.472;2022-07-29T08:47:06;30.10;67.60
29403;DHT22;16382;59.942;30.472;2022-07-29T08:49:34;30.50;65.80
29403;DHT22;16382;59.942;30.472;2022-07-29T08:52:02;30.70;65.00
29403;DHT22;16382;59.942;30.472;2022-07-29T08:54:30;30.70;63.40
29403;DHT22;16382;59.942;30.472;2022-07-29T08:56:57;31.20;63.30
29403;DHT22;16382;59.942;30.472;2022-07-29T08:59:26;31.80;60.60
29403;DHT22;16382;59.942;30.472;2022-07-29T09:01:57;32.60;60.20
29403;DHT22;16382;59.942;30.472;2022-07-29T09:04:26;32.90;57.70
29403;DHT22;16382;59.942;30.472;2022-07-29T09:06:56;33.20;57.20
29403;DHT22;16382;59.942;30.472;2022-07-29T09:09:23;33.10;56.80
29403;DHT22;16382;59.942;30.472;2022-07-29T09:11:51;32.80;56.40
29403;DHT22;16382;59.942;30.472;2022-07-29T09:14:19;32.60;57.20
29403;DHT22;16382;59.942;30.472;2022-07-29T09:16:51;32.30;58.30
29403;DHT22;16382;59.942;30.472;2022-07-29T09:19:28;31.60;58.50
29403;DHT22;16382;59.942;30.472;2022-07-29T09:21:57;30.80;58.70
29403;DHT22;16382;59.942;30.472;2022-07-29T09:24:25;30.30;60.40
29403;DHT22;16382;59.942;30.472;2022-07-29T09:26:52;29.80;61.00
29403;DHT22;16382;59.942;30.472;2022-07-29T09:29:22;29.30;61.00
29403;DHT22;16382;59.942;30.472;2022-07-29T09:31:51;28.90;61.10
29403;DHT22;16382;59.942;30.472;2022-07-29T09:34:22;28.60;61.60
29403;DHT22;16382;59.942;30.472;2022-07-29T09:36:52;28.50;63.90
29403;DHT22;16382;59.942;30.472;2022-07-29T09:39:28;28.30;64.10
29403;DHT22;16382;59.942;30.472;2022-07-29T09:41:58;28.40;64.80
29403;DHT22;16382;59.942;30.472;2022-07-29T09:44:25;28.40;65.30
29403;DHT22;16382;59.942;30.472;2022-07-29T09:46:57;28.20;67.60
29403;DHT22;16382;59.942;30.472;2022-07-29T09:49:28;27.80;67.50
29403;DHT22;16382;59.942;30.472;2022-07-29T09:52:08;27.50;69.10
29403;DHT22;16382;59.942;30.472;2022-07-29T09:54:37;27.20;70.70
29403;DHT22;16382;59.942;30.472;2022-07-29T09:57:05;27.20;71.50
29403;DHT22;16382;59.942;30.472;2022-07-29T09:59:32;27.40;72.20
29403;DHT22;16382;59.942;30.472;2022-07-29T10:02:00;27.60;70.80
29403;DHT22;16382;59.942;30.472;2022-07-29T10:04:42;27.40;69.80
29403;DHT22;16382;59.942;30.472;2022-07-29T10:07:10;27.00;70.30
29403;DHT22;16382;59.942;30.472;2022-07-29T10:09:38;26.50;71.50
29403;DHT22;16382;59.942;30.472;2022-07-29T10:12:07;26.00;73.30
29403;DHT22;16382;59.942;30.472;2022-07-29T10:14:35;25.80;74.30
29403;DHT22;16382;59.942;30.472;2022-07-29T10:17:03;26.40;74.10
29403;DHT22;16382;59.942;30.472;2022-07-29T10:19:32;26.50;73.30
29403;DHT22;16382;59.942;30.472;2022-07-29T10:22:00;26.50;73.80
29403;DHT22;16382;59.942;30.472;2022-07-29T10:24:31;27.00;72.40
29403;DHT22;16382;59.942;30.472;2022-07-29T10:26:59;27.60;71.30
29403;DHT22;16382;59.942;30.472;2022-07-29T10:29:28;28.20;68.80
29403;DHT22;16382;59.942;30.472;2022-07-29T10:32:10;28.50;67.90
29403;DHT22;16382;59.942;30.472;2022-07-29T10:34:53;28.90;66.50
29403;DHT22;16382;59.942;30.472;2022-07-29T10:37:28;28.90;64.60
29403;DHT22;16382;59.942;30.472;2022-07-29T10:40:09;28.80;65.40
29403;DHT22;16382;59.942;30.472;2022-07-29T10:42:53;28.80;64.90
29403;DHT22;16382;59.942;30.472;2022-07-29T10:45:22;28.70;64.60
29403;DHT22;16382;59.942;30.472;2022-07-29T10:48:02;28.60;64.90
29403;DHT22;16382;59.942;30.472;2022-07-29T10:50:52;28.30;64.40
29403;DHT22;16382;59.942;30.472;2022-07-29T10:53:19;28.10;64.90
29403;DHT22;16382;59.942;30.472;2022-07-29T10:55:48;28.20;64.90
29403;DHT22;16382;59.942;30.472;2022-07-29T10:58:18;28.40;62.40
29403;DHT22;16382;59.942;30.472;2022-07-29T11:00:46;28.40;62.50
29403;DHT22;16382;59.942;30.472;2022-07-29T11:03:45;28.00;62.80
29403;DHT22;16382;59.942;30.472;2022-07-29T11:06:13;27.70;63.90
29403;DHT22;16382;59.942;30.472;2022-07-29T11:08:41;27.40;64.60
29403;DHT22;16382;59.942;30.472;2022-07-29T11:11:34;27.30;65.90
29403;DHT22;16382;59.942;30.472;2022-07-29T11:14:02;27.30;65.70
29403;DHT22;16382;59.942;30.472;2022-07-29T11:16:59;27.20;64.70
29403;DHT22;16382;59.942;30.472;2022-07-29T11:19:28;27.00;64.70
29403;DHT22;16382;59.942;30.472;2022-07-29T11:21:55;26.90;64.40
29403;DHT22;16382;59.942;30.472;2022-07-29T11:24:25;26.80;64.30
29403;DHT22;16382;59.942;30.472;2022-07-29T11:27:15;26.60;64.60
29403;DHT22;16382;59.942;30.472;2022-07-29T11:29:51;26.50;64.20
29403;DHT22;16382;59.942;30.472;2022-07-29T11:32:19;26.20;65.80
29403;DHT22;16382;59.942;30.472;2022-07-29T11:34:48;26.10;66.10
29403;DHT22;16382;59.942;30.472;2022-07-29T11:37:23;26.20;66.30
29403;DHT22;16382;59.942;30.472;2022-07-29T11:40:16;26.10;66.80
29403;DHT22;16382;59.942;30.472;2022-07-29T11:42:52;25.90;69.10
29403;DHT22;16382;59.942;30.472;2022-07-29T11:45:25;25.80;68.60
29403;DHT22;16382;59.942;30.472;2022-07-29T11:47:59;25.70;68.70
29403;DHT22;16382;59.942;30.472;2022-07-29T11:50:34;25.80;68.60
29403;DHT22;16382;59.942;30.472;2022-07-29T11:53:03;25.90;69.80
29403;DHT22;16382;59.942;30.472;2022-07-29T11:55:37;26.40;70.60
29403;DHT22;16382;59.942;30.472;2022-07-29T11:58:07;27.00;68.20
29403;DHT22;16382;59.942;30.472;2022-07-29T12:00:35;27.00;67.50
29403;DHT22;16382;59.942;30.472;2022-07-29T12:03:06;27.00;66.80
29403;DHT22;16382;59.942;30.472;2022-07-29T12:05:40;27.60;66.30
29403;DHT22;16382;59.942;30.472;2022-07-29T12:08:11;29.20;64.60
29403;DHT22;16382;59.942;30.472;2022-07-29T12:10:40;30.30;59.20
29403;DHT22;16382;59.942;30.472;2022-07-29T12:13:09;31.00;57.20
29403;DHT22;16382;59.942;30.472;2022-07-29T12:15:37;31.10;55.60
29403;DHT22;16382;59.942;30.472;2022-07-29T12:18:12;30.70;55.10
29403;DHT22;16382;59.942;30.472;2022-07-29T12:20:39;29.90;55.00
29403;DHT22;16382;59.942;30.472;2022-07-29T12:23:07;29.40;56.00
29403;DHT22;16382;59.942;30.472;2022-07-29T12:25:38;29.30;56.50
29403;DHT22;16382;59.942;30.472;2022-07-29T12:28:07;29.40;57.60
29403;DHT22;16382;59.942;30.472;2022-07-29T12:30:39;29.30;57.90
29403;DHT22;16382;59.942;30.472;2022-07-29T12:33:15;29.70;56.90
29403;DHT22;16382;59.942;30.472;2022-07-29T12:35:45;29.60;57.10
29403;DHT22;16382;59.942;30.472;2022-07-29T12:38:13;29.30;58.80
29403;DHT22;16382;59.942;30.472;2022-07-29T12:40:41;30.60;58.80
29403;DHT22;16382;59.942;30.472;2022-07-29T12:43:10;32.20;54.60
29403;DHT22;16382;59.942;30.472;2022-07-29T12:45:42;33.50;50.90
29403;DHT22;16382;59.942;30.472;2022-07-29T12:48:10;34.50;50.40
29403;DHT22;16382;59.942;30.472;2022-07-29T12:50:52;34.90;48.00
29403;DHT22;16382;59.942;30.472;2022-07-29T12:53:20;35.20;45.80
29403;DHT22;16382;59.942;30.472;2022-07-29T12:55:48;35.10;46.60
29403;DHT22;16382;59.942;30.472;2022-07-29T12:58:28;35.40;47.30
29403;DHT22;16382;59.942;30.472;2022-07-29T13:01:05;35.50;46.50
29403;DHT22;16382;59.942;30.472;2022-07-29T13:03:47;35.80;46.00
29403;DHT22;16382;59.942;30.472;2022-07-29T13:06:33;36.00;44.70
29403;DHT22;16382;59.942;30.472;2022-07-29T13:09:04;35.90;45.70
29403;DHT22;16382;59.942;30.472;2022-07-29T13:11:34;36.00;45.80
29403;DHT22;16382;59.942;30.472;2022-07-29T13:14:02;36.20;45.30
29403;DHT22;16382;59.942;30.472;2022-07-29T13:16:34;36.10;44.70
29403;DHT22;16382;59.942;30.472;2022-07-29T13:19:09;36.00;44.90
29403;DHT22;16382;59.942;30.472;2022-07-29T13:21:39;36.10;45.40
29403;DHT22;16382;59.942;30.472;2022-07-29T13:24:07;36.10;46.50
29403;DHT22;16382;59.942;30.472;2022-07-29T13:26:36;36.40;46.00
29403;DHT22;16382;59.942;30.472;2022-07-29T13:29:06;36.20;45.40
29403;DHT22;16382;59.942;30.472;2022-07-29T13:31:35;36.10;44.50
29403;DHT22;16382;59.942;30.472;2022-07-29T13:34:03;35.80;45.10
29403;DHT22;16382;59.942;30.472;2022-07-29T13:36:30;35.70;45.90
29403;DHT22;16382;59.942;30.472;2022-07-29T13:39:02;35.60;46.60
29403;DHT22;16382;59.942;30.472;2022-07-29T13:41:29;35.70;46.50
29403;DHT22;16382;59.942;30.472;2022-07-29T13:43:57;35.80;47.10
29403;DHT22;16382;59.942;30.472;2022-07-29T13:46:24;36.10;45.90
29403;DHT22;16382;59.942;30.472;2022-07-29T13:48:52;36.10;44.60
29403;DHT22;16382;59.942;30.472;2022-07-29T13:51:19;35.90;46.00
29403;DHT22;16382;59.942;30.472;2022-07-29T13:53:47;35.70;45.50
29403;DHT22;16382;59.942;30.472;2022-07-29T13:56:14;35.60;44.90
29403;DHT22;16382;59.942;30.472;2022-07-29T13:58:41;35.30;46.80
29403;DHT22;16382;59.942;30.472;2022-07-29T14:01:09;34.70;48.60
29403;DHT22;16382;59.942;30.472;2022-07-29T14:03:36;33.50;50.80
29403;DHT22;16382;59.942;30.472;2022-07-29T14:06:08;32.80;52.60
29403;DHT22;16382;59.942;30.472;2022-07-29T14:08:35;32.10;54.90
29403;DHT22;16382;59.942;30.472;2022-07-29T14:11:03;32.10;55.00
29403;DHT22;16382;59.942;30.472;2022-07-29T14:13:30;32.40;55.10
29403;DHT22;16382;59.942;30.472;2022-07-29T14:15:57;33.00;53.30
29403;DHT22;16382;59.942;30.472;2022-07-29T14:18:24;33.20;51.30
29403;DHT22;16382;59.942;30.472;2022-07-29T14:20:51;33.10;52.10
29403;DHT22;16382;59.942;30.472;2022-07-29T14:23:20;33.00;52.30
29403;DHT22;16382;59.942;30.472;2022-07-29T14:25:47;32.60;52.50
29403;DHT22;16382;59.942;30.472;2022-07-29T14:28:14;31.70;53.20
29403;DHT22;16382;59.942;30.472;2022-07-29T14:30:42;30.20;57.00
29403;DHT22;16382;59.942;30.472;2022-07-29T14:33:09;28.50;60.10
29403;DHT22;16382;59.942;30.472;2022-07-29T14:35:36;27.20;64.60
29403;DHT22;16382;59.942;30.472;2022-07-29T14:38:04;26.60;67.00
29403;DHT22;16382;59.942;30.472;2022-07-29T14:40:32;26.20;68.10
29403;DHT22;16382;59.942;30.472;2022-07-29T14:42:59;25.70;69.50
29403;DHT22;16382;59.942;30.472;2022-07-29T14:45:27;25.10;71.70
29403;DHT22;16382;59.942;30.472;2022-07-29T14:47:55;24.80;72.60
29403;DHT22;16382;59.942;30.472;2022-07-29T14:50:22;24.40;74.00
29403;DHT22;16382;59.942;30.472;2022-07-29T14:52:49;24.10;75.40
29403;DHT22;16382;59.942;30.472;2022-07-29T14:55:16;23.70;76.50
29403;DHT22;16382;59.942;30.472;2022-07-29T14:57:45;23.40;78.20
29403;DHT22;16382;59.942;30.472;2022-07-29T15:00:13;23.20;79.10
29403;DHT22;16382;59.942;30.472;2022-07-29T15:02:40;23.10;79.50
29403;DHT22;16382;59.942;30.472;2022-07-29T15:05:08;22.90;80.10
29403;DHT22;16382;59.942;30.472;2022-07-29T15:07:36;22.80;80.70
29403;DHT22;16382;59.942;30.472;2022-07-29T15:10:03;22.60;81.10
29403;DHT22;16382;59.942;30.472;2022-07-29T15:12:31;22.40;82.50
29403;DHT22;16382;59.942;30.472;2022-07-29T15:15:00;22.20;83.50
29403;DHT22;16382;59.942;30.472;2022-07-29T15:17:30;22.00;85.10
29403;DHT22;16382;59.942;30.472;2022-07-29T15:19:57;21.80;87.30
29403;DHT22;16382;59.942;30.472;2022-07-29T15:22:25;21.50;88.60
29403;DHT22;16382;59.942;30.472;2022-07-29T15:24:52;21.40;90.30
29403;DHT22;16382;59.942;30.472;2022-07-29T15:27:19;21.30;91.20
29403;DHT22;16382;59.942;30.472;2022-07-29T15:29:47;21.30;92.10
29403;DHT22;16382;59.942;30.472;2022-07-29T15:32:16;21.30;92.50
29403;DHT22;16382;59.942;30.472;2022-07-29T15:34:43;21.40;92.50